Date,TemperatureHighF,TemperatureAvgF,TemperatureLowF,DewpointHighF,DewpointAvgF,DewpointLowF,HumidityHigh,HumidityAvg,HumidityLow,PressureMaxIn,PressureMinIn,WindSpeedMaxMPH,WindSpeedAvgMPH,GustSpeedMaxMPH,PrecipitationSumIn
2013-7-1,77.5,68.1,55.9,57.0,51.0,46.6,72,56,38,29.84,29.75,21,8,0,0.00
2013-7-2,77.2,65.2,56.5,55.5,51.2,43.9,86,62,34,29.86,29.80,17,6,0,0.00
2013-7-3,72.7,64.5,56.3,62.8,57.9,52.1,95,80,65,29.84,29.78,7,1,0,0.08
2013-7-4,94.1,74.1,54.7,66.8,61.2,53.9,97,68,35,29.86,29.73,8,2,0,0.00
2013-7-5,93.6,77.3,60.4,68.7,62.8,56.5,90,64,40,29.85,29.75,8,2,0,0.00
2013-7-6,96.1,76.5,59.9,68.8,63.0,57.9,94,67,38,29.81,29.74,6,2,0,0.00
2013-7-7,97.0,80.5,68.2,73.8,68.9,65.1,92,70,44,29.76,29.70,8,2,0,0.00
2013-7-8,90.3,77.7,70.3,74.5,69.7,66.5,92,77,60,29.75,29.69,10,4,0,0.40
2013-7-9,91.8,80.1,71.4,74.4,72.5,69.6,95,79,57,29.74,29.60,10,3,0,0.12
2013-7-10,89.6,79.1,68.5,73.5,65.0,56.6,93,65,41,29.76,29.59,9,3,0,0.00
2013-7-11,88.3,72.7,59.4,60.5,56.3,52.1,85,59,34,29.87,29.76,9,3,0,0.00
2013-7-12,94.8,73.6,55.4,56.9,52.2,44.4,88,53,23,29.92,29.79,7,2,0,0.00
2013-7-13,90.9,74.9,57.6,63.9,58.1,52.1,86,58,35,29.93,29.87,8,3,0,0.00
2013-7-14,95.2,79.3,63.3,71.3,64.7,57.7,86,63,41,29.99,29.91,9,4,0,0.00
2013-7-15,103.1,83.3,68.5,75.3,69.8,63.9,86,66,40,30.05,29.98,8,4,0,0.00
2013-7-16,99.9,84.9,72.0,77.3,72.8,69.1,91,69,49,30.07,30.00,8,2,0,0.00
2013-7-17,101.7,86.6,73.2,76.3,72.4,69.4,88,65,45,30.08,29.93,8,3,0,0.00
2013-7-18,98.8,86.1,73.8,75.9,72.3,70.0,89,66,46,29.98,29.71,11,3,0,0.00
2013-7-19,97.0,84.4,73.8,74.4,70.4,65.4,83,65,45,29.72,29.52,18,6,0,0.03
2013-7-20,99.3,78.8,65.8,66.9,62.7,60.0,85,61,32,29.72,29.57,10,3,0,0.00
2013-7-21,92.5,74.3,62.4,70.3,62.9,57.8,86,70,46,29.71,29.61,15,5,0,0.00
2013-7-22,94.6,78.1,62.4,70.0,65.1,59.4,92,67,43,29.64,29.49,9,3,0,0.06
2013-7-23,83.1,70.7,59.4,61.8,57.5,51.6,88,65,41,29.73,29.44,11,4,0,0.05
2013-7-24,79.3,65.4,52.7,54.0,52.2,49.9,92,65,40,29.83,29.73,10,3,0,0.00
2013-7-25,87.6,69.9,51.3,61.1,56.1,49.1,92,65,38,29.86,29.73,6,2,0,0.00
2013-7-26,75.9,65.8,57.9,65.8,60.3,55.0,91,83,68,29.73,29.62,9,3,0,1.27
2013-7-27,67.5,59.3,54.5,55.3,48.8,45.1,93,70,49,29.71,29.63,10,4,0,0.00
2013-7-28,73.0,61.3,53.8,52.5,48.4,45.6,76,64,44,29.77,29.63,14,4,0,0.00
2013-7-29,81.3,66.2,51.6,60.0,54.1,48.2,89,67,46,29.91,29.77,8,3,0,0.00
2013-7-30,73.6,63.7,54.5,62.6,58.2,52.5,93,83,58,29.94,29.82,7,3,0,0.15
2013-7-31,85.6,69.6,60.6,65.4,62.0,57.0,94,79,50,29.82,29.68,6,3,0,0.02